createdAt,value
2023-02-15T00:00:02.178Z,422.08
2023-02-15T00:01:02.203Z,420.98
2023-02-15T00:02:05.113Z,418.96
2023-02-15T00:03:02.236Z,418.12
2023-02-15T00:04:02.192Z,416.98
2023-02-15T00:05:02.193Z,415.2
2023-02-15T00:06:02.471Z,413.31
2023-02-15T00:07:02.201Z,413.73
2023-02-15T00:08:02.215Z,412.16
2023-02-15T00:09:02.206Z,412.02
2023-02-15T00:10:02.200Z,410.09
2023-02-15T00:11:02.208Z,409.89
2023-02-15T00:12:02.203Z,407.96
2023-02-15T00:13:02.338Z,406.3
2023-02-15T00:14:02.206Z,405.38
2023-02-15T00:15:02.219Z,403.89
2023-02-15T00:16:02.443Z,403.65
2023-02-15T00:17:02.236Z,403.16
2023-02-15T00:18:02.238Z,402.73
2023-02-15T00:19:02.205Z,402.24
2023-02-15T00:20:02.209Z,401.7
2023-02-15T00:21:02.217Z,401.49
2023-02-15T00:22:02.227Z,400.42
2023-02-15T00:23:02.231Z,399.48
2023-02-15T00:24:02.234Z,398.88
2023-02-15T00:25:02.238Z,397.56
2023-02-15T00:26:02.412Z,397.38
2023-02-15T00:27:02.224Z,396.69
2023-02-15T00:28:02.247Z,396.68
2023-02-15T00:29:02.218Z,395.18
2023-02-15T00:30:02.293Z,395.17
2023-02-15T00:31:02.289Z,394.81
2023-02-15T00:32:02.235Z,393.48
2023-02-15T00:33:02.711Z,393.36
2023-02-15T00:34:02.233Z,393.96
2023-02-15T00:35:02.245Z,395.05
2023-02-15T00:36:02.503Z,395.36
2023-02-15T00:37:02.233Z,395.85
2023-02-15T00:38:02.251Z,396.31
2023-02-15T00:39:02.241Z,396.69
2023-02-15T00:40:02.243Z,396.48
2023-02-15T00:41:02.247Z,396.37
2023-02-15T00:42:02.239Z,396.36
2023-02-15T00:43:02.248Z,396.83
2023-02-15T00:44:05.242Z,397.65
2023-02-15T00:45:02.253Z,398.04
2023-02-15T00:46:02.585Z,398.19
2023-02-15T00:47:02.254Z,397.75
2023-02-15T00:48:02.262Z,397.54
2023-02-15T00:49:02.291Z,396.89
2023-02-15T00:50:02.276Z,395.79
2023-02-15T00:51:02.268Z,394.89
2023-02-15T00:52:02.258Z,394.39
2023-02-15T00:53:02.259Z,393.06
2023-02-15T00:54:02.327Z,391.91
2023-02-15T00:55:02.272Z,391.48
2023-02-15T00:56:02.684Z,390.45
2023-02-15T00:57:02.265Z,389.89
2023-02-15T00:58:02.271Z,389.24
2023-02-15T00:59:02.276Z,389.36
2023-02-15T01:00:02.275Z,389.67
2023-02-15T01:01:02.312Z,389.25
2023-02-15T01:02:02.279Z,389.5
2023-02-15T01:03:02.282Z,388.79
2023-02-15T01:04:02.319Z,388.94
2023-02-15T01:05:02.309Z,388.97
2023-02-15T01:06:02.595Z,389.86
2023-02-15T01:07:02.290Z,389.64
2023-02-15T01:08:02.293Z,390.54
2023-02-15T01:09:02.290Z,389.58
2023-02-15T01:10:02.294Z,389.42
2023-02-15T01:11:02.291Z,388.3
2023-02-15T01:12:02.296Z,387.41
2023-02-15T01:13:02.292Z,387.46
2023-02-15T01:14:02.293Z,386.61
2023-02-15T01:15:02.298Z,386.63
2023-02-15T01:16:02.603Z,385.55
2023-02-15T01:17:02.299Z,385.96
2023-02-15T01:18:02.301Z,384.98
2023-02-15T01:19:02.306Z,384.34
2023-02-15T01:20:02.312Z,383.26
2023-02-15T01:21:02.337Z,381.95
2023-02-15T01:22:02.308Z,380.83
2023-02-15T01:23:02.363Z,380.85
2023-02-15T01:24:02.341Z,379.89
2023-02-15T01:25:02.314Z,380.03
2023-02-15T01:26:02.612Z,380.61
2023-02-15T01:27:02.316Z,380.22
2023-02-15T01:28:02.324Z,380.2
2023-02-15T01:29:02.331Z,379.51
2023-02-15T01:30:02.391Z,379.7
2023-02-15T01:31:02.380Z,379.56
2023-02-15T01:32:02.407Z,379.69
2023-02-15T01:33:02.327Z,378.34
2023-02-15T01:34:02.327Z,378.98
2023-02-15T01:35:02.363Z,378.14
2023-02-15T01:36:02.652Z,378.33
2023-02-15T01:37:02.361Z,377.93
2023-02-15T01:38:02.345Z,377.64
2023-02-15T01:39:02.339Z,377.89
2023-02-15T01:40:02.338Z,376.78
2023-02-15T01:41:02.346Z,376.76
2023-02-15T01:42:02.348Z,376.31
2023-02-15T01:43:02.344Z,376.39
2023-02-15T01:44:02.358Z,376.28
2023-02-15T01:45:05.195Z,376.68
2023-02-15T01:46:02.633Z,376.87
2023-02-15T01:47:02.356Z,376.66
2023-02-15T01:48:02.366Z,375.53
2023-02-15T01:49:02.370Z,375.11
2023-02-15T01:50:02.361Z,374.57
2023-02-15T01:51:02.710Z,373.93
2023-02-15T01:52:02.363Z,372.57
2023-02-15T01:53:02.386Z,372.73
2023-02-15T01:54:02.405Z,370.83
2023-02-15T01:55:02.359Z,370.55
2023-02-15T01:56:05.426Z,369.89
2023-02-15T01:57:02.363Z,368.77
2023-02-15T01:58:02.383Z,367.48
2023-02-15T01:59:02.373Z,367.29
2023-02-15T02:00:02.380Z,365.57
2023-02-15T02:01:02.374Z,364.51
2023-02-15T02:02:02.369Z,361.58
2023-02-15T02:03:02.410Z,361.07
2023-02-15T02:04:02.376Z,359.21
2023-02-15T02:05:02.385Z,357.88
2023-02-15T02:06:02.643Z,357.27
2023-02-15T02:07:05.179Z,357.1
2023-02-15T02:08:02.384Z,355.69
2023-02-15T02:09:02.490Z,355.92
2023-02-15T02:10:02.417Z,355.63
2023-02-15T02:11:02.398Z,355.89
2023-02-15T02:12:02.390Z,356.76
2023-02-15T02:13:02.392Z,357.39
2023-02-15T02:14:02.387Z,358.44
2023-02-15T02:15:02.392Z,357.99
2023-02-15T02:16:02.738Z,358.3
2023-02-15T02:17:02.389Z,357.48
2023-02-15T02:18:05.193Z,356.57
2023-02-15T02:19:02.395Z,355.46
2023-02-15T02:20:02.395Z,353.99
2023-02-15T02:21:02.403Z,351.81
2023-02-15T02:22:02.396Z,349.56
2023-02-15T02:23:02.405Z,347.9
2023-02-15T02:24:02.407Z,347.69
2023-02-15T02:25:02.425Z,346.06
2023-02-15T02:26:02.674Z,344.48
2023-02-15T02:27:02.418Z,342.77
2023-02-15T02:28:02.407Z,342.81
2023-02-15T02:29:05.283Z,341.02
2023-02-15T02:30:02.490Z,339.66
2023-02-15T02:31:02.542Z,337.88
2023-02-15T02:32:02.512Z,336.95
2023-02-15T02:33:02.425Z,336.49
2023-02-15T02:34:02.417Z,335.41
2023-02-15T02:35:02.438Z,333.53
2023-02-15T02:36:02.693Z,332.68
2023-02-15T02:37:02.419Z,331.37
2023-02-15T02:38:02.427Z,330.31
2023-02-15T02:39:02.430Z,329.57
2023-02-15T02:40:02.446Z,328.18
2023-02-15T02:41:02.460Z,326.84
2023-02-15T02:42:02.448Z,326.39
2023-02-15T02:43:02.430Z,324.81
2023-02-15T02:44:02.429Z,324.14
2023-02-15T02:45:02.435Z,323.44
2023-02-15T02:46:02.794Z,323.24
2023-02-15T02:47:02.436Z,324.12
2023-02-15T02:48:02.487Z,323.77
2023-02-15T02:49:02.439Z,323.66
2023-02-15T02:50:02.441Z,323.38
2023-02-15T02:51:02.443Z,322.05
2023-02-15T02:52:02.450Z,321.61
2023-02-15T02:53:02.451Z,321.34
2023-02-15T02:54:02.449Z,320.18
2023-02-15T02:55:02.455Z,320.49
2023-02-15T02:56:02.759Z,320.81
2023-02-15T02:57:02.476Z,320.37
2023-02-15T02:58:02.451Z,320.8
2023-02-15T02:59:02.464Z,321.54
2023-02-15T03:00:02.480Z,322.71
2023-02-15T03:01:02.477Z,324.88
2023-02-15T03:02:02.496Z,325.06
2023-02-15T03:03:02.492Z,325.77
2023-02-15T03:04:02.464Z,325.76
2023-02-15T03:05:02.473Z,325.75
2023-02-15T03:06:02.770Z,325.03
2023-02-15T03:07:02.479Z,325.05
2023-02-15T03:08:02.470Z,324.86
2023-02-15T03:09:02.473Z,325.27
2023-02-15T03:10:02.476Z,324.85
2023-02-15T03:11:02.531Z,325.57
2023-02-15T03:12:02.485Z,326.18
2023-02-15T03:13:02.512Z,324.69
2023-02-15T03:14:02.486Z,324.83
2023-02-15T03:15:02.487Z,324.36
2023-02-15T03:16:02.758Z,324.9
2023-02-15T03:17:02.496Z,325.05
2023-02-15T03:18:02.494Z,324.77
2023-02-15T03:19:02.548Z,326
2023-02-15T03:20:02.510Z,325.3
2023-02-15T03:21:02.505Z,325.75
2023-02-15T03:22:02.513Z,325.78
2023-02-15T03:23:02.502Z,326
2023-02-15T03:24:02.509Z,325.38
2023-02-15T03:25:02.500Z,325.75
2023-02-15T03:26:02.832Z,324.75
2023-02-15T03:27:02.502Z,324.26
2023-02-15T03:28:03.527Z,325.15
2023-02-15T03:29:02.540Z,324.22
2023-02-15T03:30:02.537Z,325
2023-02-15T03:31:02.616Z,324.9
2023-02-15T03:32:02.608Z,325.4
2023-02-15T03:33:02.520Z,324.93
2023-02-15T03:34:02.518Z,324.75
2023-02-15T03:35:02.517Z,324.73
2023-02-15T03:36:02.830Z,324.9
2023-02-15T03:37:02.524Z,324.22
2023-02-15T03:38:02.530Z,324.69
2023-02-15T03:39:02.530Z,324.91
2023-02-15T03:40:02.532Z,325.75
2023-02-15T03:41:02.535Z,325.95
2023-02-15T03:42:02.528Z,326.65
2023-02-15T03:43:02.539Z,327.72
2023-02-15T03:44:02.531Z,328.15
2023-02-15T03:45:02.564Z,329.07
2023-02-15T03:46:02.830Z,329.42
2023-02-15T03:47:02.536Z,329.24
2023-02-15T03:48:02.541Z,329.79
2023-02-15T03:49:02.541Z,330.45
2023-02-15T03:50:02.541Z,331.48
2023-02-15T03:51:02.554Z,332.18
2023-02-15T03:52:02.548Z,332.56
2023-02-15T03:53:02.553Z,333.14
2023-02-15T03:54:02.567Z,332.15
2023-02-15T03:55:02.548Z,333.05
2023-02-15T03:56:02.823Z,332.84
2023-02-15T03:57:02.570Z,333.42
2023-02-15T03:58:02.550Z,333.97
2023-02-15T03:59:02.559Z,334.24
2023-02-15T04:00:02.560Z,333.96
2023-02-15T04:01:02.614Z,333.61
2023-02-15T04:02:02.559Z,333.46
2023-02-15T04:03:02.605Z,333.2
2023-02-15T04:04:02.566Z,332.2
2023-02-15T04:05:02.561Z,331.56
2023-02-15T04:06:02.848Z,330.91
2023-02-15T04:07:02.566Z,330.95
2023-02-15T04:08:02.573Z,331.42
2023-02-15T04:09:02.595Z,330.6
2023-02-15T04:10:02.573Z,330.11
2023-02-15T04:11:02.577Z,329.69
2023-02-15T04:12:02.578Z,330.44
2023-02-15T04:13:02.588Z,330.22
2023-02-15T04:14:02.613Z,331.58
2023-02-15T04:15:02.597Z,331.37
2023-02-15T04:16:02.936Z,331.39
2023-02-15T04:17:02.621Z,330.9
2023-02-15T04:18:02.593Z,331.3
2023-02-15T04:19:02.616Z,331.55
2023-02-15T04:20:02.591Z,330.89
2023-02-15T04:21:02.593Z,329.59
2023-02-15T04:22:02.591Z,328.9
2023-02-15T04:23:05.680Z,328.7
2023-02-15T04:24:02.607Z,328.03
2023-02-15T04:25:02.597Z,326.67
2023-02-15T04:26:02.770Z,326.02
2023-02-15T04:27:02.600Z,323.67
2023-02-15T04:28:02.610Z,322.89
2023-02-15T04:29:02.628Z,322.85
2023-02-15T04:30:02.601Z,323.31
2023-02-15T04:31:02.635Z,322.82
2023-02-15T04:32:02.688Z,321.3
2023-02-15T04:33:02.628Z,321.56
2023-02-15T04:34:05.457Z,320.47
2023-02-15T04:35:02.609Z,320.03
2023-02-15T04:36:02.884Z,319.33
2023-02-15T04:37:02.611Z,318.7
2023-02-15T04:38:02.620Z,318.48
2023-02-15T04:39:02.630Z,316.66
2023-02-15T04:40:02.615Z,315.59
2023-02-15T04:41:02.617Z,313.52
2023-02-15T04:42:02.619Z,313.12
2023-02-15T04:43:02.619Z,312.84
2023-02-15T04:44:02.623Z,312.6
2023-02-15T04:45:05.439Z,313.3
2023-02-15T04:46:03.049Z,312.17
2023-02-15T04:47:02.628Z,312.62
2023-02-15T04:48:02.623Z,311.89
2023-02-15T04:49:02.655Z,312.78
2023-02-15T04:50:02.625Z,312.15
2023-02-15T04:51:02.632Z,311.81
2023-02-15T04:52:02.632Z,311.82
2023-02-15T04:53:02.630Z,312.27
2023-02-15T04:54:02.644Z,312.72
2023-02-15T04:55:02.636Z,312.92
2023-02-15T04:56:05.660Z,313.15
2023-02-15T04:57:02.662Z,312.47
2023-02-15T04:58:02.645Z,312.2
2023-02-15T04:59:02.640Z,310.83
2023-02-15T05:00:02.649Z,310.54
2023-02-15T05:01:02.710Z,310.7
2023-02-15T05:02:02.651Z,309.11
2023-02-15T05:03:02.646Z,308.16
2023-02-15T05:04:02.722Z,307.03
2023-02-15T05:05:02.683Z,305.25
2023-02-15T05:06:02.980Z,303.85
2023-02-15T05:07:05.642Z,302.93
2023-02-15T05:08:02.659Z,300.6
2023-02-15T05:09:02.654Z,299.22
2023-02-15T05:10:02.653Z,298.07
2023-02-15T05:11:02.682Z,296.98
2023-02-15T05:12:02.666Z,297
2023-02-15T05:13:02.666Z,295.28
2023-02-15T05:14:02.660Z,295.35
2023-02-15T05:15:02.669Z,296.8
2023-02-15T05:16:03.011Z,296.51
2023-02-15T05:17:02.667Z,297.43
2023-02-15T05:18:02.675Z,297.76
2023-02-15T05:19:02.681Z,297.22
2023-02-15T05:20:02.683Z,297.91
2023-02-15T05:21:02.710Z,297.97
2023-02-15T05:22:02.682Z,298.21
2023-02-15T05:23:02.681Z,297.77
2023-02-15T05:24:02.686Z,297.05
2023-02-15T05:25:02.679Z,296.67
2023-02-15T05:26:03.006Z,295.47
2023-02-15T05:27:02.705Z,294.4
2023-02-15T05:28:04.945Z,293.76
2023-02-15T05:29:02.696Z,293.06
2023-02-15T05:30:02.851Z,290.97
2023-02-15T05:31:02.915Z,290.49
2023-02-15T05:32:02.911Z,288.78
2023-02-15T05:33:02.695Z,288.26
2023-02-15T05:34:02.706Z,286.59
2023-02-15T05:35:02.704Z,285.91
2023-02-15T05:36:04.066Z,285.92
2023-02-15T05:37:02.884Z,285.85
2023-02-15T05:38:02.715Z,285.69
2023-02-15T05:39:02.713Z,285.44
2023-02-15T05:40:02.743Z,285.96
2023-02-15T05:41:02.711Z,285.79
2023-02-15T05:42:02.731Z,286.22
2023-02-15T05:43:02.728Z,286.61
2023-02-15T05:44:02.724Z,286.81
2023-02-15T05:45:02.741Z,286.97
2023-02-15T05:46:03.109Z,286.96
2023-02-15T05:47:02.727Z,287.54
2023-02-15T05:48:02.735Z,289.1
2023-02-15T05:49:02.726Z,289.36
2023-02-15T05:50:02.743Z,291.24
2023-02-15T05:51:02.750Z,292.77
2023-02-15T05:52:02.734Z,293.41
2023-02-15T05:53:02.809Z,294.57
2023-02-15T05:54:02.734Z,295.22
2023-02-15T05:55:02.754Z,296.34
2023-02-15T05:56:02.942Z,296.53
2023-02-15T05:57:02.744Z,296.96
2023-02-15T05:58:02.746Z,297.93
2023-02-15T05:59:02.740Z,298.11
2023-02-15T06:00:02.798Z,298.13
2023-02-15T06:01:02.751Z,296.31
2023-02-15T06:02:02.794Z,296.76
2023-02-15T06:03:02.843Z,295.84
2023-02-15T06:04:02.756Z,294.74
2023-02-15T06:05:02.797Z,293.63
2023-02-15T06:06:03.067Z,293.35
2023-02-15T06:07:02.758Z,293.13
2023-02-15T06:08:04.011Z,291.93
2023-02-15T06:09:02.780Z,291.3
2023-02-15T06:10:02.789Z,291.34
2023-02-15T06:11:02.785Z,290.23
2023-02-15T06:12:02.769Z,289.06
2023-02-15T06:13:02.775Z,288.14
2023-02-15T06:14:02.767Z,287
2023-02-15T06:15:02.795Z,287.45
2023-02-15T06:16:03.065Z,285.63
2023-02-15T06:17:02.776Z,285.44
2023-02-15T06:18:02.771Z,285.82
2023-02-15T06:19:02.777Z,285.01
2023-02-15T06:20:02.808Z,284.3
2023-02-15T06:21:02.778Z,284.55
2023-02-15T06:22:02.788Z,284.09
2023-02-15T06:23:02.800Z,283.41
2023-02-15T06:24:02.803Z,282.67
2023-02-15T06:25:02.841Z,283.42
2023-02-15T06:26:03.014Z,282.74
2023-02-15T06:27:02.790Z,282.04
2023-02-15T06:28:02.800Z,281.08
2023-02-15T06:29:02.793Z,280.25
2023-02-15T06:30:02.903Z,280.79
2023-02-15T06:31:02.906Z,280.96
2023-02-15T06:32:03.024Z,282.83
2023-02-15T06:33:02.806Z,284.05
2023-02-15T06:34:02.800Z,286.55
2023-02-15T06:35:02.830Z,287.68
2023-02-15T06:36:03.101Z,288.93
2023-02-15T06:37:02.807Z,289.56
2023-02-15T06:38:03.485Z,289.99
2023-02-15T06:39:02.817Z,290.52
2023-02-15T06:40:03.965Z,288.89
2023-02-15T06:41:02.837Z,288.92
2023-02-15T06:42:02.825Z,288.47
2023-02-15T06:43:02.817Z,288.75
2023-02-15T06:44:02.829Z,287.98
2023-02-15T06:45:02.848Z,288.86
2023-02-15T06:46:03.257Z,287.73
2023-02-15T06:47:02.815Z,288.02
2023-02-15T06:48:02.814Z,287.5
2023-02-15T06:49:02.816Z,287.4
2023-02-15T06:50:03.785Z,287.81
2023-02-15T06:51:02.828Z,287.2
2023-02-15T06:52:02.821Z,286.89
2023-02-15T06:53:02.830Z,286.96
2023-02-15T06:54:02.831Z,285.98
2023-02-15T06:55:02.829Z,285.13
2023-02-15T06:56:03.190Z,283.7
2023-02-15T06:57:02.862Z,282.19
2023-02-15T06:58:02.837Z,281.74
2023-02-15T06:59:02.841Z,280.85
2023-02-15T07:00:02.839Z,280.52
2023-02-15T07:01:05.859Z,279.77
2023-02-15T07:02:02.851Z,278.2
2023-02-15T07:03:02.845Z,277.05
2023-02-15T07:04:02.846Z,276.37
2023-02-15T07:05:02.891Z,274.65
2023-02-15T07:06:03.168Z,274.49
2023-02-15T07:07:02.848Z,273.59
2023-02-15T07:08:02.847Z,274.28
2023-02-15T07:09:02.849Z,273.35
2023-02-15T07:10:02.856Z,273.62
2023-02-15T07:11:02.847Z,273.87
2023-02-15T07:12:05.935Z,274.52
2023-02-15T07:13:02.856Z,275.31
2023-02-15T07:14:02.856Z,274.17
2023-02-15T07:15:02.854Z,273.43
2023-02-15T07:16:03.172Z,273.42
2023-02-15T07:17:02.855Z,273.91
2023-02-15T07:18:02.860Z,273.47
2023-02-15T07:19:02.855Z,274.14
2023-02-15T07:20:02.862Z,274.39
2023-02-15T07:21:02.866Z,274.63
2023-02-15T07:22:02.872Z,274.86
2023-02-15T07:23:05.711Z,275.16
2023-02-15T07:24:02.870Z,276.23
2023-02-15T07:25:02.872Z,277.12
2023-02-15T07:26:03.154Z,277.59
2023-02-15T07:27:02.868Z,278.23
2023-02-15T07:28:02.898Z,280.24
2023-02-15T07:29:02.884Z,281.21
2023-02-15T07:30:02.916Z,283.7
2023-02-15T07:31:02.922Z,287.15
2023-02-15T07:32:02.992Z,293.45
2023-02-15T07:33:05.212Z,302.9
2023-02-15T07:34:02.882Z,309.93
2023-02-15T07:35:02.882Z,313.47
2023-02-15T07:36:03.303Z,316.72
2023-02-15T07:37:02.883Z,318.05
2023-02-15T07:38:02.899Z,318.06
2023-02-15T07:39:02.891Z,317.63
2023-02-15T07:40:02.897Z,316.03
2023-02-15T07:41:02.892Z,313.84
2023-02-15T07:42:02.910Z,313.18
2023-02-15T07:43:02.904Z,310.68
2023-02-15T07:44:03.026Z,308.85
2023-02-15T07:45:02.917Z,307.97
2023-02-15T07:46:03.218Z,306.23
2023-02-15T07:47:02.900Z,304.44
2023-02-15T07:48:02.948Z,303.06
2023-02-15T07:49:02.902Z,302.32
2023-02-15T07:50:02.921Z,300.78
2023-02-15T07:51:02.907Z,299.66
2023-02-15T07:52:02.914Z,299.6
2023-02-15T07:53:02.913Z,298.26
2023-02-15T07:54:02.914Z,298.5
2023-02-15T07:55:02.917Z,298.55
2023-02-15T07:56:03.201Z,298.13
2023-02-15T07:57:02.923Z,298.08
2023-02-15T07:58:02.915Z,298.98
2023-02-15T07:59:02.927Z,299.63
2023-02-15T08:00:02.952Z,299.81
2023-02-15T08:01:02.928Z,300.3
2023-02-15T08:02:02.923Z,300.79
2023-02-15T08:03:03.013Z,303.51
2023-02-15T08:04:03.015Z,305.08
2023-02-15T08:05:02.934Z,306.47
2023-02-15T08:06:03.268Z,307.93
2023-02-15T08:07:02.947Z,307.63
2023-02-15T08:08:02.931Z,305.6
2023-02-15T08:09:02.931Z,305.23
2023-02-15T08:10:02.951Z,304.32
2023-02-15T08:11:02.960Z,302.96
2023-02-15T08:12:02.939Z,301.06
2023-02-15T08:13:02.951Z,300.65
2023-02-15T08:14:02.948Z,299.04
2023-02-15T08:15:02.956Z,297.91
2023-02-15T08:16:03.538Z,296.8
2023-02-15T08:17:02.954Z,296.04
2023-02-15T08:18:02.959Z,295.69
2023-02-15T08:19:02.960Z,296.36
2023-02-15T08:20:02.955Z,295.35
2023-02-15T08:21:02.965Z,295.38
2023-02-15T08:22:02.960Z,295.33
2023-02-15T08:23:02.966Z,295.6
2023-02-15T08:24:02.965Z,296.28
2023-02-15T08:25:02.963Z,295.56
2023-02-15T08:26:03.258Z,296.03
2023-02-15T08:27:04.653Z,295.58
2023-02-15T08:28:02.968Z,296.49
2023-02-15T08:29:02.976Z,296.05
2023-02-15T08:30:03.029Z,296.97
2023-02-15T08:31:03.381Z,297.42
2023-02-15T08:32:03.338Z,298.38
2023-02-15T08:33:03.025Z,298.74
2023-02-15T08:34:02.992Z,299.42
2023-02-15T08:35:02.987Z,301.52
2023-02-15T08:36:02.994Z,301.71
2023-02-15T08:37:02.985Z,302.83
2023-02-15T08:38:02.989Z,303.76
2023-02-15T08:39:02.997Z,305.75
2023-02-15T08:40:02.992Z,308.22
2023-02-15T08:41:03.272Z,309.32
2023-02-15T08:42:03.007Z,311.17
2023-02-15T08:43:03.002Z,312.66
2023-02-15T08:44:03.003Z,314.08
2023-02-15T08:45:03.047Z,316.04
2023-02-15T08:46:03.076Z,316.99
2023-02-15T08:47:03.002Z,318.84
2023-02-15T08:48:03.031Z,319.13
2023-02-15T08:49:03.009Z,319.57
2023-02-15T08:50:03.010Z,319.81
2023-02-15T08:51:03.306Z,319.81
2023-02-15T08:52:03.011Z,319.06
2023-02-15T08:53:04.033Z,318.3
2023-02-15T08:54:03.015Z,317.17
2023-02-15T08:55:03.014Z,315.78
2023-02-15T08:56:03.022Z,316.3
2023-02-15T08:57:03.013Z,315.83
2023-02-15T08:58:03.015Z,315.1
2023-02-15T08:59:03.022Z,315.59
2023-02-15T09:00:03.020Z,316.49
2023-02-15T09:01:03.319Z,316.64
2023-02-15T09:02:03.057Z,316.94
2023-02-15T09:03:03.057Z,317.17
2023-02-15T09:04:03.054Z,317.49
2023-02-15T09:05:03.044Z,318.09
2023-02-15T09:06:03.036Z,319.45
2023-02-15T09:07:03.034Z,320.33
2023-02-15T09:08:03.035Z,321.12
2023-02-15T09:09:03.045Z,322.62
2023-02-15T09:10:03.072Z,324.4
2023-02-15T09:11:03.464Z,325.04
2023-02-15T09:12:03.076Z,325.48
2023-02-15T09:13:03.040Z,325.74
2023-02-15T09:14:03.046Z,326.68
2023-02-15T09:15:03.043Z,328.25
2023-02-15T09:16:03.061Z,329.16
2023-02-15T09:17:03.285Z,328.51
2023-02-15T09:18:03.047Z,327.78
2023-02-15T09:19:03.051Z,326.9
2023-02-15T09:20:03.152Z,325.77
2023-02-15T09:21:03.394Z,327.33
2023-02-15T09:22:03.065Z,328.45
2023-02-15T09:23:03.058Z,328.15
2023-02-15T09:24:03.091Z,329.99
2023-02-15T09:25:03.068Z,331.99
2023-02-15T09:26:03.073Z,333.33
2023-02-15T09:27:03.068Z,334.67
2023-02-15T09:28:06.200Z,335.48
2023-02-15T09:29:03.070Z,338.2
2023-02-15T09:30:03.102Z,339.75
2023-02-15T09:31:03.381Z,341.99
2023-02-15T09:32:03.120Z,342.9
2023-02-15T09:33:03.071Z,344.22
2023-02-15T09:34:03.073Z,345.36
2023-02-15T09:35:03.104Z,346.87
2023-02-15T09:36:03.106Z,346.86
2023-02-15T09:37:03.083Z,347.11
2023-02-15T09:38:03.074Z,348.17
2023-02-15T09:39:06.164Z,348.85
2023-02-15T09:40:03.080Z,351.35
2023-02-15T09:41:03.356Z,352.6
2023-02-15T09:42:03.098Z,354.42
2023-02-15T09:43:03.093Z,355.55
2023-02-15T09:44:03.089Z,356.67
2023-02-15T09:45:03.100Z,357.32
2023-02-15T09:46:03.101Z,358.29
2023-02-15T09:47:03.095Z,358.24
2023-02-15T09:48:03.098Z,360.13
2023-02-15T09:49:03.102Z,361.15
2023-02-15T09:50:06.098Z,362.17
2023-02-15T09:51:03.451Z,363.28
2023-02-15T09:52:03.127Z,365.28
2023-02-15T09:53:03.118Z,366.56
2023-02-15T09:54:03.100Z,369.44
2023-02-15T09:55:03.104Z,370.5
2023-02-15T09:56:03.137Z,371.38
2023-02-15T09:57:03.125Z,373.49
2023-02-15T09:58:03.113Z,374.59
2023-02-15T09:59:04.129Z,375.66
2023-02-15T10:00:03.116Z,376.37
2023-02-15T10:01:06.886Z,377.17
2023-02-15T10:02:03.127Z,378.02
2023-02-15T10:03:04.348Z,379.93
2023-02-15T10:04:03.127Z,382.12
2023-02-15T10:05:03.120Z,384.1
2023-02-15T10:06:03.131Z,386.64
2023-02-15T10:07:03.127Z,388.74
2023-02-15T10:08:03.152Z,391.89
2023-02-15T10:09:03.152Z,393.61
2023-02-15T10:10:03.131Z,394.64
2023-02-15T10:11:03.399Z,395.75
2023-02-15T10:12:03.139Z,396.08
2023-02-15T10:13:03.139Z,398.22
2023-02-15T10:14:03.139Z,399.58
2023-02-15T10:15:03.145Z,401.09
2023-02-15T10:16:03.151Z,401.71
2023-02-15T10:17:03.341Z,403.38
2023-02-15T10:18:03.160Z,404.52
2023-02-15T10:19:03.150Z,405.77
2023-02-15T10:20:03.146Z,407.24
2023-02-15T10:21:03.567Z,408.34
2023-02-15T10:22:03.161Z,409.3
2023-02-15T10:23:03.155Z,410.57
2023-02-15T10:24:03.250Z,411.55
2023-02-15T10:25:03.171Z,414.66
2023-02-15T10:26:03.435Z,415.92
2023-02-15T10:27:03.164Z,417.38
2023-02-15T10:28:03.161Z,418.63
2023-02-15T10:29:03.160Z,421.59
2023-02-15T10:30:03.217Z,423.39
2023-02-15T10:31:03.515Z,426.33
2023-02-15T10:32:03.281Z,426.81
2023-02-15T10:33:03.179Z,427.39
2023-02-15T10:34:03.189Z,426.76
2023-02-15T10:35:03.180Z,426.69
2023-02-15T10:36:03.177Z,427.54
2023-02-15T10:37:03.173Z,427.13
2023-02-15T10:38:03.177Z,428.59
2023-02-15T10:39:03.173Z,429.14
2023-02-15T10:40:03.197Z,429.95
2023-02-15T10:41:03.519Z,432.63
2023-02-15T10:42:03.189Z,434.37
2023-02-15T10:43:03.190Z,437.4
2023-02-15T10:44:06.244Z,440
2023-02-15T10:45:03.193Z,443.78
2023-02-15T10:46:03.240Z,448.14
2023-02-15T10:47:03.199Z,453.37
2023-02-15T10:48:03.194Z,459.75
2023-02-15T10:49:03.203Z,466.24
2023-02-15T10:50:03.191Z,471.53
2023-02-15T10:51:03.492Z,476.57
2023-02-15T10:52:03.194Z,482.64
2023-02-15T10:53:03.201Z,485.85
2023-02-15T10:54:03.199Z,490.25
2023-02-15T10:55:03.206Z,492.5
2023-02-15T10:56:03.249Z,495.27
2023-02-15T10:57:03.200Z,498.1
2023-02-15T10:58:03.209Z,499.45
2023-02-15T10:59:03.215Z,500.86
2023-02-15T11:00:03.218Z,504.23
2023-02-15T11:01:03.664Z,507.8
2023-02-15T11:02:03.210Z,511.38
2023-02-15T11:03:03.224Z,515.01
2023-02-15T11:04:03.252Z,518.69
2023-02-15T11:05:03.271Z,522.44
2023-02-15T11:06:03.222Z,526.13
2023-02-15T11:07:03.227Z,528.66
2023-02-15T11:08:03.260Z,530.06
2023-02-15T11:09:03.230Z,530.81
2023-02-15T11:10:03.229Z,532.77
2023-02-15T11:11:03.605Z,535.35
2023-02-15T11:12:03.287Z,536.6
2023-02-15T11:13:03.227Z,539.72
2023-02-15T11:14:03.244Z,541.73
2023-02-15T11:15:03.229Z,543.39
2023-02-15T11:16:03.372Z,545.19
2023-02-15T11:17:03.267Z,546.98
2023-02-15T11:18:03.236Z,548.46
2023-02-15T11:19:03.243Z,552.72
2023-02-15T11:20:03.249Z,555.02
2023-02-15T11:21:03.653Z,558.51
2023-02-15T11:22:03.270Z,562.27
2023-02-15T11:23:03.252Z,565.41
2023-02-15T11:24:03.255Z,567.33
2023-02-15T11:25:03.257Z,568.71
2023-02-15T11:26:03.256Z,567.74
2023-02-15T11:27:03.305Z,566.57
2023-02-15T11:28:03.276Z,564.28
2023-02-15T11:29:03.267Z,563.11
2023-02-15T11:30:03.307Z,563.43
2023-02-15T11:31:03.660Z,565.4
2023-02-15T11:32:03.429Z,567.33
2023-02-15T11:33:04.296Z,566.83
2023-02-15T11:34:03.262Z,566.59
2023-02-15T11:35:03.266Z,565.7
2023-02-15T11:36:03.264Z,565.84
2023-02-15T11:37:03.345Z,565.3
2023-02-15T11:38:03.267Z,565.39
2023-02-15T11:39:03.275Z,566.89
2023-02-15T11:40:03.273Z,569.16
2023-02-15T11:41:03.593Z,572.06
2023-02-15T11:42:03.293Z,574.47
2023-02-15T11:43:03.279Z,577.14
2023-02-15T11:44:03.409Z,580.51
2023-02-15T11:45:03.287Z,583.11
2023-02-15T11:46:03.361Z,584.8
2023-02-15T11:47:03.312Z,587.27
2023-02-15T11:48:03.281Z,589.45
2023-02-15T11:49:03.282Z,590.54
2023-02-15T11:50:03.286Z,591.8
2023-02-15T11:51:03.713Z,592.35
2023-02-15T11:52:03.311Z,592.5
2023-02-15T11:53:03.308Z,593.6
2023-02-15T11:54:03.292Z,594.16
2023-02-15T11:55:06.314Z,594.49
2023-02-15T11:56:03.291Z,595.08
2023-02-15T11:57:03.321Z,596.4
2023-02-15T11:58:03.302Z,597.61
2023-02-15T11:59:03.301Z,600.02
2023-02-15T12:00:03.443Z,603.74
2023-02-15T12:01:03.690Z,607.53
2023-02-15T12:02:03.326Z,610.65
2023-02-15T12:03:03.348Z,614.82
2023-02-15T12:04:03.373Z,618.02
2023-02-15T12:05:03.311Z,622.43
2023-02-15T12:06:06.148Z,625.19
2023-02-15T12:07:03.355Z,626.8
2023-02-15T12:08:03.317Z,629.63
2023-02-15T12:09:03.320Z,632.45
2023-02-15T12:10:03.318Z,635.99
2023-02-15T12:11:03.630Z,636.84
2023-02-15T12:12:03.345Z,636.94
2023-02-15T12:13:03.317Z,637.93
2023-02-15T12:14:03.330Z,637.29
2023-02-15T12:15:03.329Z,637.95
2023-02-15T12:16:03.488Z,638.96
2023-02-15T12:17:06.917Z,642.68
2023-02-15T12:18:03.336Z,648.16
2023-02-15T12:19:03.341Z,652.95
2023-02-15T12:20:03.339Z,659.34
2023-02-15T12:21:03.595Z,664.11
2023-02-15T12:22:03.336Z,666.17
2023-02-15T12:23:03.432Z,669.25
2023-02-15T12:24:03.336Z,673.41
2023-02-15T12:25:03.339Z,675.24
2023-02-15T12:26:03.338Z,680.76
2023-02-15T12:27:03.347Z,683.79
2023-02-15T12:28:06.193Z,685.89
2023-02-15T12:29:03.360Z,689.37
2023-02-15T12:30:03.492Z,692.81
2023-02-15T12:31:03.780Z,696.88